Alta Vista, Kansas
Current Conditions -  °F | °C
As of 3:58 PM on Saturday 27 Dec 2014 (Local Time) from KFRI Reporting Station
Few Clouds Few Clouds  
Wind Chill: 23°   Ceiling: Unl
Heat Index: 31°   Visibility: 10mi
Dew Point: 18°   Wind: 9mph
Humidity: 57%   Direction: 320°NW
Pressure: 30.28"   Gusts: NA
Location:  38.86°N, 96.49°W
Report Text: KFRI 272158Z AUTO 32008KT 10SM FEW210 00/M08 A3028 RMK AO2 SLP264 T10041079
Loading
Personal Weather Stations






























Interactive Weather Map New forecast layout! Learn more

10-Day Weather Forecast

Advertisements
Track Severe Weather on mobile